sensor_id;sensor_type;location;lat;lon;timestamp;P1;durP1;ratioP1;P2;durP2;ratioP2
52956;SDS011;38819;42.692;23.342;2023-04-24T00:00:12;11.68;;;5.07;;
52956;SDS011;38819;42.692;23.342;2023-04-24T00:02:39;14.55;;;4.43;;
52956;SDS011;38819;42.692;23.342;2023-04-24T00:05:05;8.05;;;4.28;;
52956;SDS011;38819;42.692;23.342;2023-04-24T00:07:31;8.20;;;3.80;;
52956;SDS011;38819;42.692;23.342;2023-04-24T00:09:56;7.80;;;4.00;;
52956;SDS011;38819;42.692;23.342;2023-04-24T00:12:22;6.07;;;4.03;;
52956;SDS011;38819;42.692;23.342;2023-04-24T00:14:48;7.10;;;3.92;;
52956;SDS011;38819;42.692;23.342;2023-04-24T00:17:13;10.95;;;4.32;;
52956;SDS011;38819;42.692;23.342;2023-04-24T00:19:39;7.05;;;3.85;;
52956;SDS011;38819;42.692;23.342;2023-04-24T00:22:04;6.90;;;3.90;;
52956;SDS011;38819;42.692;23.342;2023-04-24T00:24:30;7.15;;;3.58;;
52956;SDS011;38819;42.692;23.342;2023-04-24T00:26:56;6.65;;;4.28;;
52956;SDS011;38819;42.692;23.342;2023-04-24T00:29:21;6.30;;;3.70;;
52956;SDS011;38819;42.692;23.342;2023-04-24T00:31:46;9.48;;;4.20;;
52956;SDS011;38819;42.692;23.342;2023-04-24T00:34:12;6.85;;;4.28;;
52956;SDS011;38819;42.692;23.342;2023-04-24T00:36:37;7.55;;;3.83;;
52956;SDS011;38819;42.692;23.342;2023-04-24T00:39:03;8.77;;;4.22;;
52956;SDS011;38819;42.692;23.342;2023-04-24T00:41:28;7.40;;;4.30;;
52956;SDS011;38819;42.692;23.342;2023-04-24T00:43:55;8.80;;;4.47;;
52956;SDS011;38819;42.692;23.342;2023-04-24T00:46:20;9.88;;;3.97;;
52956;SDS011;38819;42.692;23.342;2023-04-24T00:48:46;6.95;;;3.80;;
52956;SDS011;38819;42.692;23.342;2023-04-24T00:51:11;11.65;;;5.38;;
52956;SDS011;38819;42.692;23.342;2023-04-24T00:53:37;6.50;;;4.18;;
52956;SDS011;38819;42.692;23.342;2023-04-24T00:56:02;9.10;;;3.83;;
52956;SDS011;38819;42.692;23.342;2023-04-24T00:58:29;11.40;;;4.38;;
52956;SDS011;38819;42.692;23.342;2023-04-24T01:00:56;11.50;;;4.57;;
52956;SDS011;38819;42.692;23.342;2023-04-24T01:03:24;4.80;;;4.00;;
52956;SDS011;38819;42.692;23.342;2023-04-24T01:05:52;5.55;;;3.58;;
52956;SDS011;38819;42.692;23.342;2023-04-24T01:08:19;6.45;;;4.00;;
52956;SDS011;38819;42.692;23.342;2023-04-24T01:10:45;6.28;;;4.30;;
52956;SDS011;38819;42.692;23.342;2023-04-24T01:13:13;7.03;;;4.25;;
52956;SDS011;38819;42.692;23.342;2023-04-24T01:15:39;5.10;;;4.47;;
52956;SDS011;38819;42.692;23.342;2023-04-24T01:18:04;7.22;;;4.85;;
52956;SDS011;38819;42.692;23.342;2023-04-24T01:20:30;10.88;;;4.88;;
52956;SDS011;38819;42.692;23.342;2023-04-24T01:22:56;7.97;;;3.17;;
52956;SDS011;38819;42.692;23.342;2023-04-24T01:25:22;11.18;;;4.45;;
52956;SDS011;38819;42.692;23.342;2023-04-24T01:27:49;13.00;;;4.95;;
52956;SDS011;38819;42.692;23.342;2023-04-24T01:30:15;5.22;;;4.15;;
52956;SDS011;38819;42.692;23.342;2023-04-24T01:32:40;6.72;;;4.15;;
52956;SDS011;38819;42.692;23.342;2023-04-24T01:35:09;6.88;;;4.53;;
52956;SDS011;38819;42.692;23.342;2023-04-24T01:37:34;6.13;;;4.45;;
52956;SDS011;38819;42.692;23.342;2023-04-24T01:40:02;5.20;;;4.68;;
52956;SDS011;38819;42.692;23.342;2023-04-24T01:42:29;10.20;;;4.20;;
52956;SDS011;38819;42.692;23.342;2023-04-24T01:44:55;10.55;;;4.97;;
52956;SDS011;38819;42.692;23.342;2023-04-24T01:47:21;8.23;;;4.40;;
52956;SDS011;38819;42.692;23.342;2023-04-24T01:49:48;8.63;;;5.22;;
52956;SDS011;38819;42.692;23.342;2023-04-24T01:52:14;9.27;;;4.70;;
52956;SDS011;38819;42.692;23.342;2023-04-24T01:54:41;8.20;;;4.93;;
52956;SDS011;38819;42.692;23.342;2023-04-24T01:57:07;6.50;;;5.18;;
52956;SDS011;38819;42.692;23.342;2023-04-24T01:59:33;11.10;;;4.97;;
52956;SDS011;38819;42.692;23.342;2023-04-24T02:01:59;14.23;;;5.38;;
52956;SDS011;38819;42.692;23.342;2023-04-24T02:04:25;11.95;;;4.60;;
52956;SDS011;38819;42.692;23.342;2023-04-24T02:06:50;7.05;;;4.80;;
52956;SDS011;38819;42.692;23.342;2023-04-24T02:09:16;8.95;;;5.07;;
52956;SDS011;38819;42.692;23.342;2023-04-24T02:11:41;9.13;;;5.63;;
52956;SDS011;38819;42.692;23.342;2023-04-24T02:14:07;9.23;;;4.90;;
52956;SDS011;38819;42.692;23.342;2023-04-24T02:16:32;12.02;;;4.88;;
52956;SDS011;38819;42.692;23.342;2023-04-24T02:18:58;7.60;;;5.20;;
52956;SDS011;38819;42.692;23.342;2023-04-24T02:21:23;9.15;;;5.22;;
52956;SDS011;38819;42.692;23.342;2023-04-24T02:23:49;8.45;;;5.38;;
52956;SDS011;38819;42.692;23.342;2023-04-24T02:26:14;11.52;;;5.20;;
52956;SDS011;38819;42.692;23.342;2023-04-24T02:28:40;12.73;;;5.68;;
52956;SDS011;38819;42.692;23.342;2023-04-24T02:31:05;10.55;;;5.13;;
52956;SDS011;38819;42.692;23.342;2023-04-24T02:33:31;10.65;;;5.18;;
52956;SDS011;38819;42.692;23.342;2023-04-24T02:35:57;12.75;;;5.38;;
52956;SDS011;38819;42.692;23.342;2023-04-24T02:38:22;10.38;;;5.38;;
52956;SDS011;38819;42.692;23.342;2023-04-24T02:40:47;7.65;;;5.00;;
52956;SDS011;38819;42.692;23.342;2023-04-24T02:43:13;8.38;;;5.60;;
52956;SDS011;38819;42.692;23.342;2023-04-24T02:45:38;7.78;;;5.68;;
52956;SDS011;38819;42.692;23.342;2023-04-24T02:48:04;10.27;;;5.28;;
52956;SDS011;38819;42.692;23.342;2023-04-24T02:50:29;11.88;;;5.72;;
52956;SDS011;38819;42.692;23.342;2023-04-24T02:52:55;7.05;;;5.15;;
52956;SDS011;38819;42.692;23.342;2023-04-24T02:55:20;13.85;;;5.95;;
52956;SDS011;38819;42.692;23.342;2023-04-24T02:57:46;8.30;;;6.03;;
52956;SDS011;38819;42.692;23.342;2023-04-24T03:00:11;11.40;;;7.57;;
52956;SDS011;38819;42.692;23.342;2023-04-24T03:02:38;20.77;;;12.23;;
52956;SDS011;38819;42.692;23.342;2023-04-24T03:05:04;14.73;;;9.68;;
52956;SDS011;38819;42.692;23.342;2023-04-24T03:07:29;18.77;;;9.70;;
52956;SDS011;38819;42.692;23.342;2023-04-24T03:09:56;14.68;;;7.97;;
52956;SDS011;38819;42.692;23.342;2023-04-24T03:12:23;12.90;;;6.47;;
52956;SDS011;38819;42.692;23.342;2023-04-24T03:14:49;9.43;;;6.05;;
52956;SDS011;38819;42.692;23.342;2023-04-24T03:17:14;7.32;;;5.80;;
52956;SDS011;38819;42.692;23.342;2023-04-24T03:19:40;14.75;;;6.10;;
52956;SDS011;38819;42.692;23.342;2023-04-24T03:22:05;7.43;;;5.68;;
52956;SDS011;38819;42.692;23.342;2023-04-24T03:24:31;15.57;;;6.57;;
52956;SDS011;38819;42.692;23.342;2023-04-24T03:26:56;11.95;;;5.93;;
52956;SDS011;38819;42.692;23.342;2023-04-24T03:29:22;11.98;;;5.78;;
52956;SDS011;38819;42.692;23.342;2023-04-24T03:31:47;9.80;;;6.47;;
52956;SDS011;38819;42.692;23.342;2023-04-24T03:34:13;10.38;;;6.25;;
52956;SDS011;38819;42.692;23.342;2023-04-24T03:36:39;14.85;;;6.18;;
52956;SDS011;38819;42.692;23.342;2023-04-24T03:39:04;17.70;;;7.05;;
52956;SDS011;38819;42.692;23.342;2023-04-24T03:41:30;12.57;;;7.43;;
52956;SDS011;38819;42.692;23.342;2023-04-24T03:43:56;17.00;;;7.22;;
52956;SDS011;38819;42.692;23.342;2023-04-24T03:46:21;19.80;;;6.97;;
52956;SDS011;38819;42.692;23.342;2023-04-24T03:48:46;18.23;;;7.43;;
52956;SDS011;38819;42.692;23.342;2023-04-24T03:51:12;13.77;;;6.60;;
52956;SDS011;38819;42.692;23.342;2023-04-24T03:53:37;15.65;;;7.20;;
52956;SDS011;38819;42.692;23.342;2023-04-24T03:56:03;10.45;;;6.72;;
52956;SDS011;38819;42.692;23.342;2023-04-24T03:58:28;14.23;;;7.10;;
52956;SDS011;38819;42.692;23.342;2023-04-24T04:00:54;12.73;;;6.35;;
52956;SDS011;38819;42.692;23.342;2023-04-24T04:03:21;10.30;;;6.53;;
52956;SDS011;38819;42.692;23.342;2023-04-24T04:05:47;12.88;;;6.72;;
52956;SDS011;38819;42.692;23.342;2023-04-24T04:08:12;14.23;;;6.43;;
52956;SDS011;38819;42.692;23.342;2023-04-24T04:10:38;18.20;;;6.93;;
52956;SDS011;38819;42.692;23.342;2023-04-24T04:13:03;20.25;;;7.28;;
52956;SDS011;38819;42.692;23.342;2023-04-24T04:15:29;11.70;;;6.68;;
52956;SDS011;38819;42.692;23.342;2023-04-24T04:17:54;15.82;;;6.70;;
52956;SDS011;38819;42.692;23.342;2023-04-24T04:20:20;11.90;;;6.35;;
52956;SDS011;38819;42.692;23.342;2023-04-24T04:22:45;16.05;;;6.57;;
52956;SDS011;38819;42.692;23.342;2023-04-24T04:25:10;13.25;;;5.93;;
52956;SDS011;38819;42.692;23.342;2023-04-24T04:27:36;16.67;;;6.07;;
52956;SDS011;38819;42.692;23.342;2023-04-24T04:30:02;9.35;;;5.13;;
52956;SDS011;38819;42.692;23.342;2023-04-24T04:35:00;9.60;;;5.45;;
52956;SDS011;38819;42.692;23.342;2023-04-24T04:37:29;10.60;;;4.60;;
52956;SDS011;38819;42.692;23.342;2023-04-24T04:39:56;13.03;;;5.83;;
52956;SDS011;38819;42.692;23.342;2023-04-24T04:42:23;15.07;;;5.85;;
52956;SDS011;38819;42.692;23.342;2023-04-24T04:44:49;9.02;;;5.32;;
52956;SDS011;38819;42.692;23.342;2023-04-24T04:47:15;12.02;;;5.03;;
52956;SDS011;38819;42.692;23.342;2023-04-24T04:49:42;13.75;;;5.30;;
52956;SDS011;38819;42.692;23.342;2023-04-24T04:52:08;9.43;;;5.35;;
52956;SDS011;38819;42.692;23.342;2023-04-24T04:54:33;15.35;;;5.72;;
52956;SDS011;38819;42.692;23.342;2023-04-24T04:56:59;13.10;;;5.57;;
52956;SDS011;38819;42.692;23.342;2023-04-24T04:59:26;9.15;;;6.22;;
52956;SDS011;38819;42.692;23.342;2023-04-24T05:01:52;16.45;;;6.10;;
52956;SDS011;38819;42.692;23.342;2023-04-24T05:04:17;9.93;;;6.13;;
52956;SDS011;38819;42.692;23.342;2023-04-24T05:06:43;13.70;;;7.35;;
52956;SDS011;38819;42.692;23.342;2023-04-24T05:09:08;12.90;;;7.32;;
52956;SDS011;38819;42.692;23.342;2023-04-24T05:11:34;33.78;;;8.30;;
52956;SDS011;38819;42.692;23.342;2023-04-24T05:13:59;26.80;;;8.60;;
52956;SDS011;38819;42.692;23.342;2023-04-24T05:16:25;19.23;;;9.85;;
52956;SDS011;38819;42.692;23.342;2023-04-24T05:18:50;19.77;;;10.75;;
52956;SDS011;38819;42.692;23.342;2023-04-24T05:21:16;23.10;;;11.15;;
52956;SDS011;38819;42.692;23.342;2023-04-24T05:23:41;24.60;;;9.95;;
52956;SDS011;38819;42.692;23.342;2023-04-24T05:26:07;14.07;;;7.30;;
52956;SDS011;38819;42.692;23.342;2023-04-24T05:28:32;17.25;;;8.25;;
52956;SDS011;38819;42.692;23.342;2023-04-24T05:30:58;16.35;;;9.07;;
52956;SDS011;38819;42.692;23.342;2023-04-24T05:33:24;21.42;;;9.27;;
52956;SDS011;38819;42.692;23.342;2023-04-24T05:35:50;15.98;;;8.05;;
52956;SDS011;38819;42.692;23.342;2023-04-24T05:38:16;14.93;;;7.78;;
52956;SDS011;38819;42.692;23.342;2023-04-24T05:40:47;12.77;;;7.95;;
52956;SDS011;38819;42.692;23.342;2023-04-24T05:43:12;14.07;;;7.68;;
52956;SDS011;38819;42.692;23.342;2023-04-24T05:45:38;13.30;;;7.43;;
52956;SDS011;38819;42.692;23.342;2023-04-24T05:48:04;13.32;;;7.18;;
52956;SDS011;38819;42.692;23.342;2023-04-24T05:50:30;12.60;;;7.10;;
52956;SDS011;38819;42.692;23.342;2023-04-24T05:52:56;22.00;;;8.02;;
52956;SDS011;38819;42.692;23.342;2023-04-24T05:55:23;14.10;;;7.30;;
52956;SDS011;38819;42.692;23.342;2023-04-24T05:57:50;16.02;;;8.13;;
52956;SDS011;38819;42.692;23.342;2023-04-24T06:00:16;15.40;;;7.70;;
52956;SDS011;38819;42.692;23.342;2023-04-24T06:02:42;22.00;;;7.88;;
52956;SDS011;38819;42.692;23.342;2023-04-24T06:05:08;13.68;;;8.00;;
52956;SDS011;38819;42.692;23.342;2023-04-24T06:07:34;25.20;;;8.75;;
52956;SDS011;38819;42.692;23.342;2023-04-24T06:10:00;14.10;;;8.77;;
52956;SDS011;38819;42.692;23.342;2023-04-24T06:12:26;10.88;;;7.88;;
52956;SDS011;38819;42.692;23.342;2023-04-24T06:14:51;12.70;;;8.23;;
52956;SDS011;38819;42.692;23.342;2023-04-24T06:17:16;16.67;;;8.05;;
52956;SDS011;38819;42.692;23.342;2023-04-24T06:19:42;18.30;;;7.68;;
52956;SDS011;38819;42.692;23.342;2023-04-24T06:22:08;17.88;;;8.35;;
52956;SDS011;38819;42.692;23.342;2023-04-24T06:24:34;15.55;;;8.35;;
52956;SDS011;38819;42.692;23.342;2023-04-24T06:26:59;13.85;;;7.78;;
52956;SDS011;38819;42.692;23.342;2023-04-24T06:29:25;21.00;;;8.38;;
52956;SDS011;38819;42.692;23.342;2023-04-24T06:31:51;15.82;;;8.15;;
52956;SDS011;38819;42.692;23.342;2023-04-24T06:34:16;17.67;;;8.02;;
52956;SDS011;38819;42.692;23.342;2023-04-24T06:36:41;16.20;;;7.72;;
52956;SDS011;38819;42.692;23.342;2023-04-24T06:39:07;13.27;;;8.20;;
52956;SDS011;38819;42.692;23.342;2023-04-24T06:41:32;12.50;;;7.75;;
52956;SDS011;38819;42.692;23.342;2023-04-24T06:43:58;12.30;;;7.57;;
52956;SDS011;38819;42.692;23.342;2023-04-24T06:46:23;16.88;;;8.40;;
52956;SDS011;38819;42.692;23.342;2023-04-24T06:48:51;15.60;;;8.45;;
52956;SDS011;38819;42.692;23.342;2023-04-24T06:51:17;13.40;;;8.57;;
52956;SDS011;38819;42.692;23.342;2023-04-24T06:53:43;14.30;;;8.57;;
52956;SDS011;38819;42.692;23.342;2023-04-24T06:56:08;19.83;;;8.48;;
52956;SDS011;38819;42.692;23.342;2023-04-24T06:58:34;13.43;;;8.30;;
52956;SDS011;38819;42.692;23.342;2023-04-24T07:00:59;14.18;;;8.70;;
52956;SDS011;38819;42.692;23.342;2023-04-24T07:03:25;11.57;;;7.75;;
52956;SDS011;38819;42.692;23.342;2023-04-24T07:05:50;17.73;;;9.20;;
52956;SDS011;38819;42.692;23.342;2023-04-24T07:08:16;17.35;;;9.02;;
52956;SDS011;38819;42.692;23.342;2023-04-24T07:10:42;21.90;;;9.00;;
52956;SDS011;38819;42.692;23.342;2023-04-24T07:13:09;14.48;;;8.35;;
52956;SDS011;38819;42.692;23.342;2023-04-24T07:15:36;13.73;;;8.60;;
52956;SDS011;38819;42.692;23.342;2023-04-24T07:18:01;14.02;;;8.73;;
52956;SDS011;38819;42.692;23.342;2023-04-24T07:20:26;20.50;;;9.45;;
52956;SDS011;38819;42.692;23.342;2023-04-24T07:22:52;13.00;;;8.73;;
52956;SDS011;38819;42.692;23.342;2023-04-24T07:25:19;17.88;;;9.60;;
52956;SDS011;38819;42.692;23.342;2023-04-24T07:27:44;19.30;;;9.48;;
52956;SDS011;38819;42.692;23.342;2023-04-24T07:30:10;13.07;;;8.40;;
52956;SDS011;38819;42.692;23.342;2023-04-24T07:32:36;19.27;;;8.32;;
52956;SDS011;38819;42.692;23.342;2023-04-24T07:35:01;16.52;;;8.35;;
52956;SDS011;38819;42.692;23.342;2023-04-24T07:37:27;26.67;;;10.07;;
52956;SDS011;38819;42.692;23.342;2023-04-24T07:39:53;17.90;;;9.32;;
52956;SDS011;38819;42.692;23.342;2023-04-24T07:42:19;18.20;;;8.60;;
52956;SDS011;38819;42.692;23.342;2023-04-24T07:44:44;17.80;;;8.45;;
52956;SDS011;38819;42.692;23.342;2023-04-24T07:47:11;16.27;;;8.27;;
52956;SDS011;38819;42.692;23.342;2023-04-24T07:49:37;11.32;;;7.47;;
52956;SDS011;38819;42.692;23.342;2023-04-24T07:52:02;15.13;;;7.40;;
52956;SDS011;38819;42.692;23.342;2023-04-24T07:54:28;14.70;;;7.90;;
52956;SDS011;38819;42.692;23.342;2023-04-24T07:56:54;14.23;;;8.18;;
52956;SDS011;38819;42.692;23.342;2023-04-24T07:59:22;13.82;;;5.80;;
52956;SDS011;38819;42.692;23.342;2023-04-24T08:01:48;7.35;;;5.80;;
52956;SDS011;38819;42.692;23.342;2023-04-24T08:04:13;8.98;;;6.00;;
52956;SDS011;38819;42.692;23.342;2023-04-24T08:06:39;7.45;;;6.05;;
52956;SDS011;38819;42.692;23.342;2023-04-24T08:09:05;8.70;;;6.13;;
52956;SDS011;38819;42.692;23.342;2023-04-24T08:11:31;10.60;;;6.57;;
52956;SDS011;38819;42.692;23.342;2023-04-24T08:13:57;9.55;;;6.63;;
52956;SDS011;38819;42.692;23.342;2023-04-24T08:16:22;11.82;;;7.25;;
52956;SDS011;38819;42.692;23.342;2023-04-24T08:18:51;11.00;;;6.35;;
52956;SDS011;38819;42.692;23.342;2023-04-24T08:21:16;20.75;;;7.50;;
52956;SDS011;38819;42.692;23.342;2023-04-24T08:23:44;14.30;;;6.53;;
52956;SDS011;38819;42.692;23.342;2023-04-24T08:26:10;12.30;;;6.28;;
52956;SDS011;38819;42.692;23.342;2023-04-24T08:28:36;9.18;;;5.72;;
52956;SDS011;38819;42.692;23.342;2023-04-24T08:31:02;6.47;;;4.88;;
52956;SDS011;38819;42.692;23.342;2023-04-24T08:33:28;6.53;;;5.35;;
52956;SDS011;38819;42.692;23.342;2023-04-24T08:35:59;9.57;;;5.13;;
52956;SDS011;38819;42.692;23.342;2023-04-24T08:38:28;7.63;;;5.70;;
52956;SDS011;38819;42.692;23.342;2023-04-24T08:40:54;9.20;;;5.75;;
52956;SDS011;38819;42.692;23.342;2023-04-24T08:43:24;8.52;;;5.63;;
52956;SDS011;38819;42.692;23.342;2023-04-24T08:45:51;11.13;;;5.82;;
52956;SDS011;38819;42.692;23.342;2023-04-24T08:48:18;12.35;;;6.20;;
52956;SDS011;38819;42.692;23.342;2023-04-24T08:50:43;7.50;;;5.30;;
52956;SDS011;38819;42.692;23.342;2023-04-24T08:53:09;13.27;;;5.95;;
52956;SDS011;38819;42.692;23.342;2023-04-24T08:55:35;7.13;;;5.22;;
52956;SDS011;38819;42.692;23.342;2023-04-24T08:58:02;9.52;;;6.03;;
52956;SDS011;38819;42.692;23.342;2023-04-24T09:00:29;12.68;;;5.72;;
52956;SDS011;38819;42.692;23.342;2023-04-24T09:02:55;8.68;;;5.15;;
52956;SDS011;38819;42.692;23.342;2023-04-24T09:05:21;11.38;;;5.82;;
52956;SDS011;38819;42.692;23.342;2023-04-24T09:07:55;9.48;;;5.55;;
52956;SDS011;38819;42.692;23.342;2023-04-24T09:10:22;7.30;;;5.05;;
52956;SDS011;38819;42.692;23.342;2023-04-24T09:12:50;6.78;;;4.82;;
52956;SDS011;38819;42.692;23.342;2023-04-24T09:15:17;6.82;;;5.07;;
52956;SDS011;38819;42.692;23.342;2023-04-24T09:17:45;11.20;;;5.05;;
52956;SDS011;38819;42.692;23.342;2023-04-24T09:20:11;11.55;;;5.32;;
52956;SDS011;38819;42.692;23.342;2023-04-24T09:22:36;8.82;;;5.35;;
52956;SDS011;38819;42.692;23.342;2023-04-24T09:25:06;14.82;;;6.00;;
52956;SDS011;38819;42.692;23.342;2023-04-24T09:27:33;10.95;;;5.07;;
52956;SDS011;38819;42.692;23.342;2023-04-24T09:29:59;11.93;;;5.38;;
52956;SDS011;38819;42.692;23.342;2023-04-24T09:32:25;9.15;;;5.43;;
52956;SDS011;38819;42.692;23.342;2023-04-24T09:35:07;12.63;;;5.13;;
52956;SDS011;38819;42.692;23.342;2023-04-24T09:37:35;8.63;;;5.40;;
52956;SDS011;38819;42.692;23.342;2023-04-24T09:40:08;9.88;;;5.15;;
52956;SDS011;38819;42.692;23.342;2023-04-24T09:42:44;6.38;;;5.05;;
52956;SDS011;38819;42.692;23.342;2023-04-24T09:45:11;8.55;;;4.88;;
52956;SDS011;38819;42.692;23.342;2023-04-24T09:47:38;11.25;;;5.00;;
52956;SDS011;38819;42.692;23.342;2023-04-24T09:50:11;9.07;;;4.78;;
52956;SDS011;38819;42.692;23.342;2023-04-24T09:52:44;12.07;;;5.13;;
52956;SDS011;38819;42.692;23.342;2023-04-24T09:55:20;10.80;;;5.05;;
52956;SDS011;38819;42.692;23.342;2023-04-24T09:57:53;10.52;;;4.70;;
52956;SDS011;38819;42.692;23.342;2023-04-24T10:00:27;14.65;;;5.07;;
52956;SDS011;38819;42.692;23.342;2023-04-24T10:05:32;4.18;;;3.75;;
52956;SDS011;38819;42.692;23.342;2023-04-24T10:08:05;7.70;;;4.50;;
52956;SDS011;38819;42.692;23.342;2023-04-24T10:10:33;8.25;;;4.53;;
52956;SDS011;38819;42.692;23.342;2023-04-24T10:13:00;10.57;;;4.90;;
52956;SDS011;38819;42.692;23.342;2023-04-24T10:15:26;13.70;;;4.93;;
52956;SDS011;38819;42.692;23.342;2023-04-24T10:17:52;6.57;;;3.92;;
52956;SDS011;38819;42.692;23.342;2023-04-24T10:20:21;5.55;;;4.07;;
52956;SDS011;38819;42.692;23.342;2023-04-24T10:22:49;11.40;;;4.57;;
52956;SDS011;38819;42.692;23.342;2023-04-24T10:25:22;9.15;;;4.32;;
52956;SDS011;38819;42.692;23.342;2023-04-24T10:27:50;7.18;;;4.13;;
52956;SDS011;38819;42.692;23.342;2023-04-24T10:30:18;11.23;;;4.38;;
52956;SDS011;38819;42.692;23.342;2023-04-24T10:32:45;6.07;;;4.97;;
52956;SDS011;38819;42.692;23.342;2023-04-24T10:35:14;8.63;;;4.88;;
52956;SDS011;38819;42.692;23.342;2023-04-24T10:37:42;8.10;;;4.47;;
52956;SDS011;38819;42.692;23.342;2023-04-24T10:40:11;12.70;;;4.00;;
52956;SDS011;38819;42.692;23.342;2023-04-24T10:42:40;11.05;;;4.85;;
52956;SDS011;38819;42.692;23.342;2023-04-24T10:45:15;10.38;;;5.20;;
52956;SDS011;38819;42.692;23.342;2023-04-24T10:47:42;7.43;;;4.90;;
52956;SDS011;38819;42.692;23.342;2023-04-24T10:50:16;8.25;;;4.30;;
52956;SDS011;38819;42.692;23.342;2023-04-24T10:52:47;11.73;;;4.32;;
52956;SDS011;38819;42.692;23.342;2023-04-24T10:55:16;8.48;;;3.75;;
52956;SDS011;38819;42.692;23.342;2023-04-24T10:58:05;5.53;;;3.90;;
52956;SDS011;38819;42.692;23.342;2023-04-24T11:00:30;4.28;;;3.88;;
52956;SDS011;38819;42.692;23.342;2023-04-24T11:02:56;10.85;;;4.80;;
52956;SDS011;38819;42.692;23.342;2023-04-24T11:05:23;11.43;;;4.27;;
52956;SDS011;38819;42.692;23.342;2023-04-24T11:10:47;10.30;;;4.30;;
52956;SDS011;38819;42.692;23.342;2023-04-24T11:13:21;9.10;;;4.03;;
52956;SDS011;38819;42.692;23.342;2023-04-24T11:16:11;11.98;;;4.10;;
52956;SDS011;38819;42.692;23.342;2023-04-24T11:18:45;12.52;;;4.28;;
52956;SDS011;38819;42.692;23.342;2023-04-24T11:21:11;7.93;;;4.20;;
52956;SDS011;38819;42.692;23.342;2023-04-24T11:23:39;6.28;;;4.25;;
52956;SDS011;38819;42.692;23.342;2023-04-24T11:26:23;8.18;;;4.78;;
52956;SDS011;38819;42.692;23.342;2023-04-24T11:28:55;7.32;;;4.75;;
52956;SDS011;38819;42.692;23.342;2023-04-24T11:31:38;10.43;;;4.72;;
52956;SDS011;38819;42.692;23.342;2023-04-24T11:34:12;5.90;;;4.25;;
52956;SDS011;38819;42.692;23.342;2023-04-24T11:36:39;11.05;;;5.07;;
52956;SDS011;38819;42.692;23.342;2023-04-24T11:39:05;13.23;;;4.20;;
52956;SDS011;38819;42.692;23.342;2023-04-24T11:41:31;8.07;;;5.63;;
52956;SDS011;38819;42.692;23.342;2023-04-24T11:43:58;5.78;;;4.13;;
52956;SDS011;38819;42.692;23.342;2023-04-24T11:46:26;4.53;;;4.10;;
52956;SDS011;38819;42.692;23.342;2023-04-24T11:48:53;6.20;;;3.15;;
52956;SDS011;38819;42.692;23.342;2023-04-24T11:51:19;5.55;;;4.50;;
52956;SDS011;38819;42.692;23.342;2023-04-24T11:53:44;6.43;;;3.50;;
52956;SDS011;38819;42.692;23.342;2023-04-24T11:56:10;4.38;;;3.28;;
52956;SDS011;38819;42.692;23.342;2023-04-24T11:58:36;5.85;;;3.97;;
52956;SDS011;38819;42.692;23.342;2023-04-24T12:01:03;3.25;;;2.92;;
52956;SDS011;38819;42.692;23.342;2023-04-24T12:03:29;8.07;;;3.05;;
52956;SDS011;38819;42.692;23.342;2023-04-24T12:06:08;10.60;;;3.35;;
52956;SDS011;38819;42.692;23.342;2023-04-24T12:08:35;5.82;;;3.45;;
52956;SDS011;38819;42.692;23.342;2023-04-24T12:11:04;5.60;;;3.50;;
52956;SDS011;38819;42.692;23.342;2023-04-24T12:13:32;8.30;;;3.08;;
52956;SDS011;38819;42.692;23.342;2023-04-24T12:15:58;8.32;;;4.07;;
52956;SDS011;38819;42.692;23.342;2023-04-24T12:18:24;3.25;;;2.95;;
52956;SDS011;38819;42.692;23.342;2023-04-24T12:20:50;4.80;;;3.90;;
52956;SDS011;38819;42.692;23.342;2023-04-24T12:23:15;6.80;;;3.30;;
52956;SDS011;38819;42.692;23.342;2023-04-24T12:25:41;6.68;;;3.38;;
52956;SDS011;38819;42.692;23.342;2023-04-24T12:30:38;9.30;;;3.40;;
52956;SDS011;38819;42.692;23.342;2023-04-24T12:33:22;16.15;;;4.13;;
52956;SDS011;38819;42.692;23.342;2023-04-24T12:35:48;10.73;;;3.55;;
52956;SDS011;38819;42.692;23.342;2023-04-24T12:38:21;5.20;;;3.00;;
52956;SDS011;38819;42.692;23.342;2023-04-24T12:40:48;3.22;;;2.92;;
52956;SDS011;38819;42.692;23.342;2023-04-24T12:43:25;13.13;;;3.58;;
52956;SDS011;38819;42.692;23.342;2023-04-24T12:45:51;12.38;;;3.53;;
52956;SDS011;38819;42.692;23.342;2023-04-24T12:48:16;7.95;;;3.72;;
52956;SDS011;38819;42.692;23.342;2023-04-24T12:50:42;6.35;;;2.97;;
52956;SDS011;38819;42.692;23.342;2023-04-24T12:53:08;6.30;;;2.60;;
52956;SDS011;38819;42.692;23.342;2023-04-24T12:55:34;7.72;;;3.25;;
52956;SDS011;38819;42.692;23.342;2023-04-24T12:58:00;7.45;;;2.95;;
52956;SDS011;38819;42.692;23.342;2023-04-24T13:00:26;3.92;;;2.97;;
52956;SDS011;38819;42.692;23.342;2023-04-24T13:02:52;6.28;;;3.03;;
52956;SDS011;38819;42.692;23.342;2023-04-24T13:05:17;8.02;;;3.70;;
52956;SDS011;38819;42.692;23.342;2023-04-24T13:07:43;6.63;;;3.50;;
52956;SDS011;38819;42.692;23.342;2023-04-24T13:10:08;12.50;;;3.90;;
52956;SDS011;38819;42.692;23.342;2023-04-24T13:12:34;8.55;;;3.42;;
52956;SDS011;38819;42.692;23.342;2023-04-24T13:15:00;11.27;;;3.50;;
52956;SDS011;38819;42.692;23.342;2023-04-24T13:17:25;5.78;;;3.63;;
52956;SDS011;38819;42.692;23.342;2023-04-24T13:19:51;8.85;;;3.70;;
52956;SDS011;38819;42.692;23.342;2023-04-24T13:22:20;11.55;;;4.40;;
52956;SDS011;38819;42.692;23.342;2023-04-24T13:24:45;6.85;;;3.63;;
52956;SDS011;38819;42.692;23.342;2023-04-24T13:27:13;7.07;;;3.33;;
52956;SDS011;38819;42.692;23.342;2023-04-24T13:29:39;10.90;;;4.53;;
52956;SDS011;38819;42.692;23.342;2023-04-24T13:32:05;6.75;;;4.10;;
52956;SDS011;38819;42.692;23.342;2023-04-24T13:34:31;11.35;;;7.47;;
52956;SDS011;38819;42.692;23.342;2023-04-24T13:36:57;7.30;;;4.55;;
52956;SDS011;38819;42.692;23.342;2023-04-24T13:39:23;15.73;;;4.70;;
52956;SDS011;38819;42.692;23.342;2023-04-24T13:41:49;8.73;;;4.00;;
52956;SDS011;38819;42.692;23.342;2023-04-24T13:44:16;13.55;;;8.15;;
52956;SDS011;38819;42.692;23.342;2023-04-24T13:46:43;5.60;;;4.80;;
52956;SDS011;38819;42.692;23.342;2023-04-24T13:49:10;11.80;;;3.83;;
52956;SDS011;38819;42.692;23.342;2023-04-24T13:51:36;5.65;;;3.15;;
52956;SDS011;38819;42.692;23.342;2023-04-24T13:54:01;5.95;;;3.65;;
52956;SDS011;38819;42.692;23.342;2023-04-24T13:56:27;6.80;;;3.33;;
52956;SDS011;38819;42.692;23.342;2023-04-24T13:58:52;6.55;;;3.50;;
52956;SDS011;38819;42.692;23.342;2023-04-24T14:01:19;11.30;;;4.00;;
52956;SDS011;38819;42.692;23.342;2023-04-24T14:03:45;11.30;;;3.93;;
52956;SDS011;38819;42.692;23.342;2023-04-24T14:06:11;7.63;;;3.88;;
52956;SDS011;38819;42.692;23.342;2023-04-24T14:08:36;10.48;;;4.05;;
52956;SDS011;38819;42.692;23.342;2023-04-24T14:11:02;4.88;;;3.63;;
52956;SDS011;38819;42.692;23.342;2023-04-24T14:13:27;6.70;;;3.92;;
52956;SDS011;38819;42.692;23.342;2023-04-24T14:15:53;5.38;;;3.50;;
52956;SDS011;38819;42.692;23.342;2023-04-24T14:18:19;7.57;;;3.60;;
52956;SDS011;38819;42.692;23.342;2023-04-24T14:20:45;6.32;;;3.85;;
52956;SDS011;38819;42.692;23.342;2023-04-24T14:23:10;12.07;;;3.60;;
52956;SDS011;38819;42.692;23.342;2023-04-24T14:25:36;7.32;;;3.13;;
52956;SDS011;38819;42.692;23.342;2023-04-24T14:28:02;5.80;;;3.10;;
52956;SDS011;38819;42.692;23.342;2023-04-24T14:30:27;5.25;;;2.85;;
52956;SDS011;38819;42.692;23.342;2023-04-24T14:32:53;4.60;;;3.10;;
52956;SDS011;38819;42.692;23.342;2023-04-24T14:35:18;3.58;;;2.95;;